sensor_id;sensor_type;location;lat;lon;timestamp;pressure;altitude;pressure_sealevel;temperature;humidity
75551;BME280;65071;53.082;18.218;2024-02-26T00:01:45;100348.08;;;2.69;91.72
75551;BME280;65071;53.082;18.218;2024-02-26T00:04:11;100346.75;;;2.68;91.90
75551;BME280;65071;53.082;18.218;2024-02-26T00:06:39;100352.73;;;2.66;92.07
75551;BME280;65071;53.082;18.218;2024-02-26T00:09:09;100352.11;;;2.63;92.47
75551;BME280;65071;53.082;18.218;2024-02-26T00:11:38;100349.48;;;2.60;92.23
75551;BME280;65071;53.082;18.218;2024-02-26T00:14:05;100346.23;;;2.58;92.29
75551;BME280;65071;53.082;18.218;2024-02-26T00:16:31;100342.27;;;2.59;92.52
75551;BME280;65071;53.082;18.218;2024-02-26T00:18:58;100338.45;;;2.61;92.37
75551;BME280;65071;53.082;18.218;2024-02-26T00:21:24;100340.39;;;2.61;92.47
75551;BME280;65071;53.082;18.218;2024-02-26T00:23:52;100340.86;;;2.61;92.38
75551;BME280;65071;53.082;18.218;2024-02-26T00:26:19;100336.38;;;2.62;92.35
75551;BME280;65071;53.082;18.218;2024-02-26T00:28:45;100334.42;;;2.62;92.70
75551;BME280;65071;53.082;18.218;2024-02-26T00:31:12;100332.02;;;2.61;92.27
75551;BME280;65071;53.082;18.218;2024-02-26T00:33:38;100329.19;;;2.59;92.10
75551;BME280;65071;53.082;18.218;2024-02-26T00:36:05;100330.02;;;2.55;92.00
75551;BME280;65071;53.082;18.218;2024-02-26T00:38:31;100331.45;;;2.52;91.72
75551;BME280;65071;53.082;18.218;2024-02-26T00:40:57;100330.83;;;2.48;91.86
75551;BME280;65071;53.082;18.218;2024-02-26T00:43:24;100332.11;;;2.45;91.76
75551;BME280;65071;53.082;18.218;2024-02-26T00:45:50;100329.67;;;2.43;92.23
75551;BME280;65071;53.082;18.218;2024-02-26T00:48:18;100328.73;;;2.41;92.18
75551;BME280;65071;53.082;18.218;2024-02-26T00:50:45;100328.21;;;2.41;92.02
75551;BME280;65071;53.082;18.218;2024-02-26T00:53:11;100330.98;;;2.39;92.19
75551;BME280;65071;53.082;18.218;2024-02-26T00:55:38;100335.13;;;2.36;92.07
75551;BME280;65071;53.082;18.218;2024-02-26T00:58:04;100335.08;;;2.32;92.19
75551;BME280;65071;53.082;18.218;2024-02-26T01:00:30;100336.73;;;2.29;92.01
75551;BME280;65071;53.082;18.218;2024-02-26T01:02:57;100334.91;;;2.25;92.19
75551;BME280;65071;53.082;18.218;2024-02-26T01:05:24;100334.34;;;2.23;92.32
75551;BME280;65071;53.082;18.218;2024-02-26T01:07:50;100333.78;;;2.23;92.43
75551;BME280;65071;53.082;18.218;2024-02-26T01:10:17;100331.38;;;2.22;92.22
75551;BME280;65071;53.082;18.218;2024-02-26T01:12:43;100329.30;;;2.21;92.32
75551;BME280;65071;53.082;18.218;2024-02-26T01:15:10;100331.46;;;2.21;92.32
75551;BME280;65071;53.082;18.218;2024-02-26T01:17:36;100331.77;;;2.19;92.07
75551;BME280;65071;53.082;18.218;2024-02-26T01:20:04;100336.34;;;2.17;91.80
75551;BME280;65071;53.082;18.218;2024-02-26T01:22:31;100332.70;;;2.16;92.24
75551;BME280;65071;53.082;18.218;2024-02-26T01:24:57;100332.80;;;2.14;92.37
75551;BME280;65071;53.082;18.218;2024-02-26T01:27:23;100333.19;;;2.11;92.74
75551;BME280;65071;53.082;18.218;2024-02-26T01:29:53;100335.14;;;2.07;93.04
75551;BME280;65071;53.082;18.218;2024-02-26T01:32:19;100337.39;;;2.03;93.13
75551;BME280;65071;53.082;18.218;2024-02-26T01:34:45;100342.56;;;2.00;93.31
75551;BME280;65071;53.082;18.218;2024-02-26T01:37:12;100342.00;;;1.98;93.13
75551;BME280;65071;53.082;18.218;2024-02-26T01:39:38;100340.33;;;1.96;93.81
75551;BME280;65071;53.082;18.218;2024-02-26T01:42:06;100339.98;;;1.96;93.91
75551;BME280;65071;53.082;18.218;2024-02-26T01:44:33;100338.77;;;1.98;93.82
75551;BME280;65071;53.082;18.218;2024-02-26T01:47:00;100345.36;;;2.00;93.67
75551;BME280;65071;53.082;18.218;2024-02-26T01:49:28;100345.75;;;2.00;93.94
75551;BME280;65071;53.082;18.218;2024-02-26T01:51:55;100342.74;;;1.97;94.02
75551;BME280;65071;53.082;18.218;2024-02-26T01:54:22;100341.98;;;1.95;93.97
75551;BME280;65071;53.082;18.218;2024-02-26T01:56:49;100345.52;;;1.96;94.10
75551;BME280;65071;53.082;18.218;2024-02-26T01:59:16;100348.20;;;1.96;93.81
75551;BME280;65071;53.082;18.218;2024-02-26T02:01:47;100350.42;;;1.96;93.97
75551;BME280;65071;53.082;18.218;2024-02-26T02:04:15;100351.21;;;1.98;93.86
75551;BME280;65071;53.082;18.218;2024-02-26T02:06:42;100348.02;;;1.98;93.90
75551;BME280;65071;53.082;18.218;2024-02-26T02:09:11;100348.92;;;1.97;93.95
75551;BME280;65071;53.082;18.218;2024-02-26T02:11:37;100344.34;;;1.97;93.40
75551;BME280;65071;53.082;18.218;2024-02-26T02:14:04;100344.98;;;1.96;93.65
75551;BME280;65071;53.082;18.218;2024-02-26T02:16:30;100346.59;;;1.95;93.55
75551;BME280;65071;53.082;18.218;2024-02-26T02:18:58;100348.24;;;1.94;94.23
75551;BME280;65071;53.082;18.218;2024-02-26T02:21:24;100346.39;;;1.91;94.59
75551;BME280;65071;53.082;18.218;2024-02-26T02:23:51;100345.34;;;1.86;94.90
75551;BME280;65071;53.082;18.218;2024-02-26T02:26:18;100342.16;;;1.81;94.98
75551;BME280;65071;53.082;18.218;2024-02-26T02:28:47;100340.70;;;1.76;94.90
75551;BME280;65071;53.082;18.218;2024-02-26T02:31:15;100338.95;;;1.73;94.91
75551;BME280;65071;53.082;18.218;2024-02-26T02:33:42;100335.59;;;1.71;94.98
75551;BME280;65071;53.082;18.218;2024-02-26T02:36:08;100333.64;;;1.69;95.69
75551;BME280;65071;53.082;18.218;2024-02-26T02:38:37;100335.52;;;1.67;95.81
75551;BME280;65071;53.082;18.218;2024-02-26T02:41:04;100334.56;;;1.66;95.68
75551;BME280;65071;53.082;18.218;2024-02-26T02:43:30;100338.38;;;1.64;95.58
75551;BME280;65071;53.082;18.218;2024-02-26T02:45:56;100338.17;;;1.62;95.93
75551;BME280;65071;53.082;18.218;2024-02-26T02:48:23;100341.95;;;1.61;95.91
75551;BME280;65071;53.082;18.218;2024-02-26T02:50:49;100347.16;;;1.63;96.71
75551;BME280;65071;53.082;18.218;2024-02-26T02:53:15;100344.40;;;1.64;96.80
75551;BME280;65071;53.082;18.218;2024-02-26T02:55:42;100343.42;;;1.66;96.51
75551;BME280;65071;53.082;18.218;2024-02-26T02:58:09;100346.02;;;1.66;96.58
75551;BME280;65071;53.082;18.218;2024-02-26T03:00:35;100344.80;;;1.66;96.37
75551;BME280;65071;53.082;18.218;2024-02-26T03:03:01;100348.84;;;1.66;96.17
75551;BME280;65071;53.082;18.218;2024-02-26T03:05:27;100351.44;;;1.67;96.24
75551;BME280;65071;53.082;18.218;2024-02-26T03:07:54;100357.94;;;1.68;96.12
75551;BME280;65071;53.082;18.218;2024-02-26T03:10:20;100359.29;;;1.69;95.66
75551;BME280;65071;53.082;18.218;2024-02-26T03:12:47;100366.10;;;1.71;95.84
75551;BME280;65071;53.082;18.218;2024-02-26T03:15:14;100365.63;;;1.72;95.59
75551;BME280;65071;53.082;18.218;2024-02-26T03:17:40;100365.29;;;1.74;95.83
75551;BME280;65071;53.082;18.218;2024-02-26T03:20:07;100367.73;;;1.78;95.99
75551;BME280;65071;53.082;18.218;2024-02-26T03:22:35;100377.10;;;1.80;96.00
75551;BME280;65071;53.082;18.218;2024-02-26T03:25:01;100375.51;;;1.83;95.84
75551;BME280;65071;53.082;18.218;2024-02-26T03:27:28;100371.75;;;1.83;95.89
75551;BME280;65071;53.082;18.218;2024-02-26T03:29:54;100373.00;;;1.86;95.83
75551;BME280;65071;53.082;18.218;2024-02-26T03:32:20;100366.11;;;1.88;95.75
75551;BME280;65071;53.082;18.218;2024-02-26T03:34:47;100362.64;;;1.89;95.87
75551;BME280;65071;53.082;18.218;2024-02-26T03:37:13;100358.89;;;1.89;95.45
75551;BME280;65071;53.082;18.218;2024-02-26T03:39:39;100360.49;;;1.89;95.38
75551;BME280;65071;53.082;18.218;2024-02-26T03:42:05;100357.56;;;1.89;95.28
75551;BME280;65071;53.082;18.218;2024-02-26T03:44:32;100355.09;;;1.88;95.19
75551;BME280;65071;53.082;18.218;2024-02-26T03:46:58;100346.93;;;1.88;95.19
75551;BME280;65071;53.082;18.218;2024-02-26T03:49:24;100347.14;;;1.88;95.58
75551;BME280;65071;53.082;18.218;2024-02-26T03:51:51;100344.22;;;1.87;95.54
75551;BME280;65071;53.082;18.218;2024-02-26T03:54:17;100349.27;;;1.88;95.72
75551;BME280;65071;53.082;18.218;2024-02-26T03:56:43;100349.71;;;1.84;95.36
75551;BME280;65071;53.082;18.218;2024-02-26T03:59:10;100356.88;;;1.86;95.78
75551;BME280;65071;53.082;18.218;2024-02-26T04:01:36;100356.92;;;1.82;95.97
75551;BME280;65071;53.082;18.218;2024-02-26T04:04:02;100356.89;;;1.78;96.02
75551;BME280;65071;53.082;18.218;2024-02-26T04:06:29;100358.55;;;1.77;95.59
75551;BME280;65071;53.082;18.218;2024-02-26T04:08:55;100355.63;;;1.76;95.89
75551;BME280;65071;53.082;18.218;2024-02-26T04:11:21;100358.50;;;1.75;95.78
75551;BME280;65071;53.082;18.218;2024-02-26T04:13:48;100361.72;;;1.75;95.69
75551;BME280;65071;53.082;18.218;2024-02-26T04:16:17;100359.40;;;1.73;95.73
75551;BME280;65071;53.082;18.218;2024-02-26T04:18:43;100359.27;;;1.69;95.50
75551;BME280;65071;53.082;18.218;2024-02-26T04:21:10;100355.15;;;1.68;95.97
75551;BME280;65071;53.082;18.218;2024-02-26T04:23:36;100351.05;;;1.65;96.03
75551;BME280;65071;53.082;18.218;2024-02-26T04:26:03;100350.04;;;1.62;96.49
75551;BME280;65071;53.082;18.218;2024-02-26T04:28:30;100350.16;;;1.58;96.37
75551;BME280;65071;53.082;18.218;2024-02-26T04:30:56;100354.08;;;1.58;96.39
75551;BME280;65071;53.082;18.218;2024-02-26T04:33:23;100355.61;;;1.58;96.72
75551;BME280;65071;53.082;18.218;2024-02-26T04:35:49;100355.87;;;1.57;96.78
75551;BME280;65071;53.082;18.218;2024-02-26T04:38:15;100358.22;;;1.57;96.49
75551;BME280;65071;53.082;18.218;2024-02-26T04:40:42;100358.11;;;1.56;96.44
75551;BME280;65071;53.082;18.218;2024-02-26T04:43:08;100355.71;;;1.55;95.96
75551;BME280;65071;53.082;18.218;2024-02-26T04:45:35;100354.96;;;1.55;96.21
75551;BME280;65071;53.082;18.218;2024-02-26T04:50:28;100358.94;;;1.54;95.87
75551;BME280;65071;53.082;18.218;2024-02-26T04:52:54;100355.73;;;1.52;95.71
75551;BME280;65071;53.082;18.218;2024-02-26T04:55:20;100358.20;;;1.52;95.97
75551;BME280;65071;53.082;18.218;2024-02-26T04:57:47;100360.32;;;1.50;95.32
75551;BME280;65071;53.082;18.218;2024-02-26T05:00:13;100361.67;;;1.51;95.74
75551;BME280;65071;53.082;18.218;2024-02-26T05:02:40;100363.90;;;1.51;95.30
75551;BME280;65071;53.082;18.218;2024-02-26T05:05:07;100369.64;;;1.51;95.52
75551;BME280;65071;53.082;18.218;2024-02-26T05:07:39;100375.45;;;1.49;95.26
75551;BME280;65071;53.082;18.218;2024-02-26T05:12:33;100380.77;;;1.43;95.46
75551;BME280;65071;53.082;18.218;2024-02-26T05:15:02;100382.95;;;1.42;95.13
75551;BME280;65071;53.082;18.218;2024-02-26T05:17:28;100387.69;;;1.43;95.35
75551;BME280;65071;53.082;18.218;2024-02-26T05:19:55;100389.86;;;1.45;95.47
75551;BME280;65071;53.082;18.218;2024-02-26T05:22:21;100391.61;;;1.45;95.55
75551;BME280;65071;53.082;18.218;2024-02-26T05:24:47;100398.38;;;1.44;94.92
75551;BME280;65071;53.082;18.218;2024-02-26T05:27:14;100402.14;;;1.44;94.98
75551;BME280;65071;53.082;18.218;2024-02-26T05:29:40;100399.42;;;1.42;94.60
75551;BME280;65071;53.082;18.218;2024-02-26T05:32:06;100406.52;;;1.42;94.54
75551;BME280;65071;53.082;18.218;2024-02-26T05:34:32;100405.59;;;1.40;94.76
75551;BME280;65071;53.082;18.218;2024-02-26T05:36:59;100411.61;;;1.40;94.51
75551;BME280;65071;53.082;18.218;2024-02-26T05:39:25;100411.79;;;1.38;94.36
75551;BME280;65071;53.082;18.218;2024-02-26T05:41:52;100413.83;;;1.36;94.30
75551;BME280;65071;53.082;18.218;2024-02-26T05:44:18;100420.02;;;1.36;94.34
75551;BME280;65071;53.082;18.218;2024-02-26T05:46:44;100423.77;;;1.33;94.82
75551;BME280;65071;53.082;18.218;2024-02-26T05:49:11;100429.59;;;1.31;94.99
75551;BME280;65071;53.082;18.218;2024-02-26T05:51:37;100425.38;;;1.28;95.34
75551;BME280;65071;53.082;18.218;2024-02-26T05:54:04;100431.14;;;1.26;94.99
75551;BME280;65071;53.082;18.218;2024-02-26T05:56:30;100426.92;;;1.26;95.12
75551;BME280;65071;53.082;18.218;2024-02-26T05:58:57;100432.75;;;1.26;95.15
75551;BME280;65071;53.082;18.218;2024-02-26T06:01:23;100430.63;;;1.29;95.57
75551;BME280;65071;53.082;18.218;2024-02-26T06:03:51;100426.52;;;1.27;95.05
75551;BME280;65071;53.082;18.218;2024-02-26T06:06:17;100433.97;;;1.27;94.82
75551;BME280;65071;53.082;18.218;2024-02-26T06:08:43;100436.98;;;1.27;95.46
75551;BME280;65071;53.082;18.218;2024-02-26T06:11:10;100429.61;;;1.26;95.40
75551;BME280;65071;53.082;18.218;2024-02-26T06:13:36;100437.95;;;1.25;95.66
75551;BME280;65071;53.082;18.218;2024-02-26T06:16:03;100436.79;;;1.27;95.39
75551;BME280;65071;53.082;18.218;2024-02-26T06:18:29;100432.63;;;1.28;95.44
75551;BME280;65071;53.082;18.218;2024-02-26T06:20:55;100430.93;;;1.30;95.38
75551;BME280;65071;53.082;18.218;2024-02-26T06:23:22;100436.68;;;1.34;95.27
75551;BME280;65071;53.082;18.218;2024-02-26T06:25:48;100438.58;;;1.37;95.71
75551;BME280;65071;53.082;18.218;2024-02-26T06:30:41;100444.41;;;1.40;95.19
75551;BME280;65071;53.082;18.218;2024-02-26T06:33:08;100445.52;;;1.44;95.42
75551;BME280;65071;53.082;18.218;2024-02-26T06:35:34;100446.73;;;1.48;95.27
75551;BME280;65071;53.082;18.218;2024-02-26T06:38:00;100443.90;;;1.53;95.57
75551;BME280;65071;53.082;18.218;2024-02-26T06:40:27;100450.81;;;1.58;95.09
75551;BME280;65071;53.082;18.218;2024-02-26T06:42:54;100451.67;;;1.66;95.11
75551;BME280;65071;53.082;18.218;2024-02-26T06:45:20;100454.40;;;1.73;95.49
75551;BME280;65071;53.082;18.218;2024-02-26T06:47:46;100452.52;;;1.77;94.90
75551;BME280;65071;53.082;18.218;2024-02-26T06:50:13;100454.55;;;1.76;94.74
75551;BME280;65071;53.082;18.218;2024-02-26T06:52:40;100450.41;;;1.77;94.88
75551;BME280;65071;53.082;18.218;2024-02-26T06:55:06;100452.65;;;1.80;94.99
75551;BME280;65071;53.082;18.218;2024-02-26T06:57:34;100453.14;;;1.81;95.11
75551;BME280;65071;53.082;18.218;2024-02-26T07:00:01;100454.14;;;1.82;95.23
75551;BME280;65071;53.082;18.218;2024-02-26T07:02:30;100453.83;;;1.83;94.80
75551;BME280;65071;53.082;18.218;2024-02-26T07:04:57;100453.98;;;1.86;94.39
75551;BME280;65071;53.082;18.218;2024-02-26T07:07:25;100452.23;;;1.84;93.68
75551;BME280;65071;53.082;18.218;2024-02-26T07:09:51;100456.64;;;1.89;93.66
75551;BME280;65071;53.082;18.218;2024-02-26T07:12:18;100459.13;;;1.94;93.86
75551;BME280;65071;53.082;18.218;2024-02-26T07:14:47;100461.61;;;1.99;93.81
75551;BME280;65071;53.082;18.218;2024-02-26T07:17:15;100468.07;;;2.05;93.05
75551;BME280;65071;53.082;18.218;2024-02-26T07:19:42;100472.42;;;2.09;92.42
75551;BME280;65071;53.082;18.218;2024-02-26T07:22:09;100471.00;;;2.09;92.31
75551;BME280;65071;53.082;18.218;2024-02-26T07:24:35;100474.06;;;2.09;92.10
75551;BME280;65071;53.082;18.218;2024-02-26T07:27:02;100469.25;;;2.09;92.61
75551;BME280;65071;53.082;18.218;2024-02-26T07:29:29;100472.29;;;2.11;92.98
75551;BME280;65071;53.082;18.218;2024-02-26T07:31:55;100472.98;;;2.18;93.07
75551;BME280;65071;53.082;18.218;2024-02-26T07:34:22;100476.70;;;2.29;93.31
75551;BME280;65071;53.082;18.218;2024-02-26T07:36:56;100480.45;;;2.36;92.72
75551;BME280;65071;53.082;18.218;2024-02-26T07:39:22;100487.20;;;2.43;92.78
75551;BME280;65071;53.082;18.218;2024-02-26T07:41:49;100488.61;;;2.51;92.33
75551;BME280;65071;53.082;18.218;2024-02-26T07:44:17;100486.49;;;2.53;91.79
75551;BME280;65071;53.082;18.218;2024-02-26T07:46:44;100491.00;;;2.57;91.78
75551;BME280;65071;53.082;18.218;2024-02-26T07:49:11;100493.98;;;2.63;91.87
75551;BME280;65071;53.082;18.218;2024-02-26T07:51:37;100496.36;;;2.69;91.90
75551;BME280;65071;53.082;18.218;2024-02-26T07:56:30;100492.22;;;2.91;92.66
75551;BME280;65071;53.082;18.218;2024-02-26T07:58:56;100492.24;;;3.06;92.34
75551;BME280;65071;53.082;18.218;2024-02-26T08:01:23;100490.30;;;3.20;92.43
75551;BME280;65071;53.082;18.218;2024-02-26T08:03:49;100489.29;;;3.31;91.89
75551;BME280;65071;53.082;18.218;2024-02-26T08:06:16;100488.19;;;3.39;91.85
75551;BME280;65071;53.082;18.218;2024-02-26T08:08:45;100487.56;;;3.45;91.57
75551;BME280;65071;53.082;18.218;2024-02-26T08:11:15;100489.16;;;3.56;91.21
75551;BME280;65071;53.082;18.218;2024-02-26T08:13:42;100484.35;;;3.66;91.15
75551;BME280;65071;53.082;18.218;2024-02-26T08:16:08;100485.93;;;3.73;90.15
75551;BME280;65071;53.082;18.218;2024-02-26T08:18:35;100490.40;;;3.80;90.04
75551;BME280;65071;53.082;18.218;2024-02-26T08:21:01;100492.14;;;3.90;89.58
75551;BME280;65071;53.082;18.218;2024-02-26T08:23:29;100500.00;;;3.98;88.77
75551;BME280;65071;53.082;18.218;2024-02-26T08:25:57;100497.84;;;4.08;88.47
75551;BME280;65071;53.082;18.218;2024-02-26T08:30:51;100495.86;;;4.28;89.31
75551;BME280;65071;53.082;18.218;2024-02-26T08:33:17;100493.05;;;4.41;89.56
75551;BME280;65071;53.082;18.218;2024-02-26T08:35:43;100495.41;;;4.52;89.26
75551;BME280;65071;53.082;18.218;2024-02-26T08:38:10;100498.60;;;4.65;88.72
75551;BME280;65071;53.082;18.218;2024-02-26T08:40:36;100499.91;;;4.78;88.71
75551;BME280;65071;53.082;18.218;2024-02-26T08:43:03;100503.17;;;4.90;88.55
75551;BME280;65071;53.082;18.218;2024-02-26T08:45:30;100505.34;;;5.01;88.20
75551;BME280;65071;53.082;18.218;2024-02-26T08:47:56;100505.14;;;5.10;87.66
75551;BME280;65071;53.082;18.218;2024-02-26T08:50:24;100511.95;;;5.22;87.95
75551;BME280;65071;53.082;18.218;2024-02-26T08:52:53;100513.96;;;5.37;88.21
75551;BME280;65071;53.082;18.218;2024-02-26T08:55:20;100511.46;;;5.50;87.77
75551;BME280;65071;53.082;18.218;2024-02-26T08:57:47;100510.51;;;5.65;87.67
75551;BME280;65071;53.082;18.218;2024-02-26T09:00:14;100508.91;;;5.74;87.41
75551;BME280;65071;53.082;18.218;2024-02-26T09:02:41;100513.52;;;5.91;88.32
75551;BME280;65071;53.082;18.218;2024-02-26T09:05:43;100510.30;;;6.06;88.16
75551;BME280;65071;53.082;18.218;2024-02-26T09:08:09;100511.11;;;6.21;87.26
75551;BME280;65071;53.082;18.218;2024-02-26T09:10:38;100511.69;;;6.33;86.99
75551;BME280;65071;53.082;18.218;2024-02-26T09:13:05;100511.30;;;6.47;87.83
75551;BME280;65071;53.082;18.218;2024-02-26T09:15:31;100513.39;;;6.56;86.05
75551;BME280;65071;53.082;18.218;2024-02-26T09:17:57;100511.77;;;6.63;84.11
75551;BME280;65071;53.082;18.218;2024-02-26T09:20:24;100509.77;;;6.71;85.91
75551;BME280;65071;53.082;18.218;2024-02-26T09:22:51;100511.42;;;6.85;86.29
75551;BME280;65071;53.082;18.218;2024-02-26T09:25:18;100512.41;;;6.87;84.20
75551;BME280;65071;53.082;18.218;2024-02-26T09:27:45;100513.44;;;6.90;85.16
75551;BME280;65071;53.082;18.218;2024-02-26T09:30:12;100518.95;;;6.90;84.74
75551;BME280;65071;53.082;18.218;2024-02-26T09:32:39;100521.77;;;6.97;85.36
75551;BME280;65071;53.082;18.218;2024-02-26T09:35:06;100522.68;;;7.00;84.63
75551;BME280;65071;53.082;18.218;2024-02-26T09:37:33;100521.66;;;7.08;85.30
75551;BME280;65071;53.082;18.218;2024-02-26T09:40:00;100522.30;;;7.09;84.15
75551;BME280;65071;53.082;18.218;2024-02-26T09:42:28;100531.16;;;7.10;83.95
75551;BME280;65071;53.082;18.218;2024-02-26T09:44:59;100529.44;;;7.13;84.70
75551;BME280;65071;53.082;18.218;2024-02-26T09:47:31;100528.49;;;7.21;85.60
75551;BME280;65071;53.082;18.218;2024-02-26T09:49:59;100529.58;;;7.33;85.68
75551;BME280;65071;53.082;18.218;2024-02-26T09:52:28;100526.48;;;7.43;85.80
75551;BME280;65071;53.082;18.218;2024-02-26T09:54:55;100526.71;;;7.56;86.16
75551;BME280;65071;53.082;18.218;2024-02-26T09:57:21;100521.88;;;7.68;85.64
75551;BME280;65071;53.082;18.218;2024-02-26T09:59:53;100521.42;;;7.81;85.56
75551;BME280;65071;53.082;18.218;2024-02-26T10:02:20;100522.35;;;7.92;84.71
75551;BME280;65071;53.082;18.218;2024-02-26T10:04:47;100522.21;;;8.01;84.92
75551;BME280;65071;53.082;18.218;2024-02-26T10:07:17;100519.66;;;8.07;84.61
75551;BME280;65071;53.082;18.218;2024-02-26T10:09:43;100521.02;;;8.10;84.10
75551;BME280;65071;53.082;18.218;2024-02-26T10:12:11;100527.17;;;8.17;84.20
75551;BME280;65071;53.082;18.218;2024-02-26T10:14:37;100528.48;;;8.23;83.49
75551;BME280;65071;53.082;18.218;2024-02-26T10:17:07;100525.42;;;8.28;82.67
75551;BME280;65071;53.082;18.218;2024-02-26T10:19:34;100523.95;;;8.36;83.21
75551;BME280;65071;53.082;18.218;2024-02-26T10:22:02;100521.86;;;8.46;83.65
75551;BME280;65071;53.082;18.218;2024-02-26T10:24:30;100510.11;;;8.51;83.43
75551;BME280;65071;53.082;18.218;2024-02-26T10:26:57;100509.48;;;8.61;82.70
75551;BME280;65071;53.082;18.218;2024-02-26T10:29:25;100512.30;;;8.73;82.56
75551;BME280;65071;53.082;18.218;2024-02-26T10:31:52;100508.56;;;8.82;82.13
75551;BME280;65071;53.082;18.218;2024-02-26T10:34:19;100510.27;;;8.92;81.88
75551;BME280;65071;53.082;18.218;2024-02-26T10:36:46;100508.63;;;9.00;82.13
75551;BME280;65071;53.082;18.218;2024-02-26T10:39:13;100510.30;;;9.08;80.63
75551;BME280;65071;53.082;18.218;2024-02-26T10:41:43;100507.86;;;9.15;80.39
75551;BME280;65071;53.082;18.218;2024-02-26T10:44:10;100506.41;;;9.22;79.25
75551;BME280;65071;53.082;18.218;2024-02-26T10:46:40;100503.35;;;9.25;79.34
75551;BME280;65071;53.082;18.218;2024-02-26T10:49:13;100508.28;;;9.35;79.56
75551;BME280;65071;53.082;18.218;2024-02-26T10:51:44;100509.16;;;9.48;78.64
75551;BME280;65071;53.082;18.218;2024-02-26T10:54:15;100513.33;;;9.60;79.69
75551;BME280;65071;53.082;18.218;2024-02-26T10:56:42;100510.54;;;9.70;79.78
75551;BME280;65071;53.082;18.218;2024-02-26T10:59:09;100508.73;;;9.82;75.71
75551;BME280;65071;53.082;18.218;2024-02-26T11:04:08;100498.02;;;10.19;74.79
75551;BME280;65071;53.082;18.218;2024-02-26T11:06:37;100495.66;;;10.33;74.45
75551;BME280;65071;53.082;18.218;2024-02-26T11:09:04;100494.40;;;10.52;76.45
75551;BME280;65071;53.082;18.218;2024-02-26T11:11:33;100498.91;;;10.63;73.51
75551;BME280;65071;53.082;18.218;2024-02-26T11:14:03;100496.15;;;10.69;72.26
75551;BME280;65071;53.082;18.218;2024-02-26T11:16:30;100494.64;;;10.82;73.57
75551;BME280;65071;53.082;18.218;2024-02-26T11:18:57;100488.02;;;10.92;71.17
75551;BME280;65071;53.082;18.218;2024-02-26T11:21:24;100488.78;;;11.05;71.55
75551;BME280;65071;53.082;18.218;2024-02-26T11:23:57;100482.14;;;11.16;72.10
75551;BME280;65071;53.082;18.218;2024-02-26T11:26:24;100481.30;;;11.17;70.35
75551;BME280;65071;53.082;18.218;2024-02-26T11:28:53;100480.03;;;11.22;71.56
75551;BME280;65071;53.082;18.218;2024-02-26T11:31:20;100482.17;;;11.26;70.94
75551;BME280;65071;53.082;18.218;2024-02-26T11:33:54;100481.67;;;11.30;72.87
75551;BME280;65071;53.082;18.218;2024-02-26T11:36:23;100479.86;;;11.30;71.22
75551;BME280;65071;53.082;18.218;2024-02-26T11:38:50;100481.09;;;11.34;71.01
75551;BME280;65071;53.082;18.218;2024-02-26T11:41:18;100478.84;;;11.31;70.04
75551;BME280;65071;53.082;18.218;2024-02-26T11:44:01;100484.43;;;11.36;70.69
75551;BME280;65071;53.082;18.218;2024-02-26T11:46:32;100479.71;;;11.38;70.79
75551;BME280;65071;53.082;18.218;2024-02-26T11:49:01;100480.94;;;11.44;71.20
75551;BME280;65071;53.082;18.218;2024-02-26T11:51:31;100487.85;;;11.53;70.78
75551;BME280;65071;53.082;18.218;2024-02-26T11:53:58;100483.84;;;11.58;70.71
75551;BME280;65071;53.082;18.218;2024-02-26T11:56:25;100480.14;;;11.63;70.59
75551;BME280;65071;53.082;18.218;2024-02-26T11:59:00;100478.77;;;11.69;70.23
75551;BME280;65071;53.082;18.218;2024-02-26T12:01:39;100483.05;;;11.76;70.34
75551;BME280;65071;53.082;18.218;2024-02-26T12:04:11;100479.80;;;11.81;70.79
75551;BME280;65071;53.082;18.218;2024-02-26T12:06:50;100477.96;;;11.83;69.42
75551;BME280;65071;53.082;18.218;2024-02-26T12:12:08;100478.85;;;11.94;69.63
75551;BME280;65071;53.082;18.218;2024-02-26T12:14:39;100480.95;;;11.96;68.68
75551;BME280;65071;53.082;18.218;2024-02-26T12:17:07;100476.48;;;12.01;68.24
75551;BME280;65071;53.082;18.218;2024-02-26T12:19:45;100470.73;;;12.08;69.86
75551;BME280;65071;53.082;18.218;2024-02-26T12:22:14;100474.18;;;12.15;70.66
75551;BME280;65071;53.082;18.218;2024-02-26T12:24:42;100472.76;;;12.21;69.56
75551;BME280;65071;53.082;18.218;2024-02-26T12:27:09;100474.52;;;12.23;67.04
75551;BME280;65071;53.082;18.218;2024-02-26T12:29:40;100475.88;;;12.24;66.01
75551;BME280;65071;53.082;18.218;2024-02-26T12:32:06;100476.23;;;12.30;67.51
75551;BME280;65071;53.082;18.218;2024-02-26T12:34:32;100472.61;;;12.35;67.55
75551;BME280;65071;53.082;18.218;2024-02-26T12:36:59;100468.65;;;12.41;67.52
75551;BME280;65071;53.082;18.218;2024-02-26T12:39:26;100463.05;;;12.46;68.69
75551;BME280;65071;53.082;18.218;2024-02-26T12:41:52;100464.23;;;12.49;66.72
75551;BME280;65071;53.082;18.218;2024-02-26T12:44:26;100459.25;;;12.53;68.20
75551;BME280;65071;53.082;18.218;2024-02-26T12:47:03;100458.86;;;12.50;65.19
75551;BME280;65071;53.082;18.218;2024-02-26T12:49:31;100457.45;;;12.54;66.38
75551;BME280;65071;53.082;18.218;2024-02-26T12:51:57;100455.56;;;12.57;66.36
75551;BME280;65071;53.082;18.218;2024-02-26T12:54:28;100456.43;;;12.60;65.01
75551;BME280;65071;53.082;18.218;2024-02-26T12:56:55;100455.98;;;12.67;65.31
75551;BME280;65071;53.082;18.218;2024-02-26T12:59:22;100457.95;;;12.73;64.55
75551;BME280;65071;53.082;18.218;2024-02-26T13:01:49;100454.16;;;12.83;65.76
75551;BME280;65071;53.082;18.218;2024-02-26T13:04:15;100453.41;;;12.90;64.86
75551;BME280;65071;53.082;18.218;2024-02-26T13:06:43;100460.70;;;12.98;63.78